Time,TemperatureF,DewpointF,PressureIn,WindDirection,WindDirectionDegrees,WindSpeedMPH,WindSpeedGustMPH,Humidity,HourlyPrecipIn,Conditions,Clouds,dailyrainin,SoftwareType,DateUTC
2013-02-13 00:00:00,47.5,35.9,29.94,NW,312,0.0,0.0,64,0.00,,,0.00,Wunderground v.1.15,2013-02-13 05:00:00,
2013-02-13 00:10:00,47.4,37.4,29.93,NW,312,0.0,0.0,68,0.00,,,0.00,Wunderground v.1.15,2013-02-13 05:10:00,
2013-02-13 00:20:00,46.9,38.3,29.91,NW,312,0.0,0.0,72,0.00,,,0.00,Wunderground v.1.15,2013-02-13 05:20:00,
2013-02-13 00:30:00,46.8,38.2,29.88,ENE,57,0.0,0.0,72,0.00,,,0.00,Wunderground v.1.15,2013-02-13 05:30:00,
2013-02-13 00:40:00,47.2,36.0,29.91,NE,49,0.0,0.0,65,0.00,,,0.00,Wunderground v.1.15,2013-02-13 05:40:00,
2013-02-13 00:50:00,48.0,35.6,29.91,NE,37,0.0,1.0,62,0.00,,,0.00,Wunderground v.1.15,2013-02-13 05:50:00,
2013-02-13 01:00:00,48.1,36.9,29.90,NE,36,0.0,1.0,65,0.00,,,0.00,Wunderground v.1.15,2013-02-13 06:00:00,
2013-02-13 01:10:00,47.6,36.4,29.90,NE,36,0.0,0.0,65,0.00,,,0.00,Wunderground v.1.15,2013-02-13 06:10:00,
2013-02-13 01:20:00,47.3,36.9,29.89,NE,36,0.0,0.0,67,0.00,,,0.00,Wunderground v.1.15,2013-02-13 06:20:00,
2013-02-13 01:30:00,47.0,38.1,29.88,NE,36,0.0,0.0,71,0.00,,,0.00,Wunderground v.1.15,2013-02-13 06:30:00,
2013-02-13 01:40:00,46.5,40.3,29.85,NE,36,0.0,0.0,79,0.00,,,0.01,Wunderground v.1.15,2013-02-13 06:40:00,
2013-02-13 01:50:00,45.7,41.1,29.86,NE,36,0.0,1.0,84,0.00,,,0.01,Wunderground v.1.15,2013-02-13 06:50:00,
2013-02-13 02:00:00,44.9,41.0,29.85,NE,36,1.0,1.0,86,0.00,,,0.01,Wunderground v.1.15,2013-02-13 07:00:00,
2013-02-13 02:10:00,44.5,41.5,29.86,NE,36,0.0,0.0,89,0.00,,,0.01,Wunderground v.1.15,2013-02-13 07:10:00,
2013-02-13 02:20:00,44.4,41.4,29.89,NE,36,0.0,0.0,89,0.00,,,0.01,Wunderground v.1.15,2013-02-13 07:20:00,
2013-02-13 02:30:00,44.3,41.8,29.87,NE,36,0.0,0.0,91,0.00,,,0.02,Wunderground v.1.15,2013-02-13 07:30:00,
2013-02-13 02:40:00,44.0,41.5,29.87,NE,36,0.0,0.0,91,0.05,,,0.03,Wunderground v.1.15,2013-02-13 07:40:00,
2013-02-13 02:50:00,43.8,41.6,29.85,NE,36,0.0,0.0,92,0.05,,,0.04,Wunderground v.1.15,2013-02-13 07:50:00,
2013-02-13 03:00:00,43.5,41.3,29.85,NE,36,0.0,0.0,92,0.07,,,0.05,Wunderground v.1.15,2013-02-13 08:00:00,
2013-02-13 03:10:00,43.4,41.2,29.85,NE,36,0.0,0.0,92,0.05,,,0.06,Wunderground v.1.15,2013-02-13 08:10:00,
2013-02-13 03:20:00,43.3,41.1,29.84,NE,36,0.0,0.0,92,0.08,,,0.07,Wunderground v.1.15,2013-02-13 08:20:00,